Ames, South Dakota
Current Conditions -  °F | °C
As of 5:53 PM on Wednesday 26 Nov 2014 (Local Time) from KPIR Reporting Station
Overcast Overcast  
Wind Chill: -15°   Ceiling: 2300
Heat Index: -8°   Visibility: 10mi
Dew Point: -13°   Wind: 10mph
Humidity: 71%   Direction: 60°ENE
Pressure: 30.4"   Gusts: NA
Location:  44.3693°N, 100.04°W
Report Text: KPIR 262353Z AUTO 06009KT 10SM OVC023 M08/M13 A3040 RMK AO2 SLP322 T10831128 11050 21083 53020
Loading
Personal Weather Stations






























Interactive Weather Map New forecast layout! Learn more

10-Day Weather Forecast

Advertisements
Track Severe Weather on mobile